sensor_id;sensor_type;location;lat;lon;timestamp;P1;durP1;ratioP1;P2;durP2;ratioP2
34317;SDS011;20582;52.196;20.952;2024-03-06T00:00:03;128.43;;;45.95;;
34317;SDS011;20582;52.196;20.952;2024-03-06T00:02:29;115.63;;;40.90;;
34317;SDS011;20582;52.196;20.952;2024-03-06T00:04:55;122.78;;;46.03;;
34317;SDS011;20582;52.196;20.952;2024-03-06T00:07:21;117.38;;;44.35;;
34317;SDS011;20582;52.196;20.952;2024-03-06T00:09:47;132.50;;;46.67;;
34317;SDS011;20582;52.196;20.952;2024-03-06T00:12:13;122.97;;;45.35;;
34317;SDS011;20582;52.196;20.952;2024-03-06T00:14:39;126.43;;;45.58;;
34317;SDS011;20582;52.196;20.952;2024-03-06T00:17:05;126.90;;;46.88;;
34317;SDS011;20582;52.196;20.952;2024-03-06T00:19:32;106.72;;;43.63;;
34317;SDS011;20582;52.196;20.952;2024-03-06T00:21:59;123.57;;;45.35;;
34317;SDS011;20582;52.196;20.952;2024-03-06T00:26:54;120.55;;;44.80;;
34317;SDS011;20582;52.196;20.952;2024-03-06T00:29:20;118.65;;;47.78;;
34317;SDS011;20582;52.196;20.952;2024-03-06T00:31:46;117.85;;;47.72;;
34317;SDS011;20582;52.196;20.952;2024-03-06T00:34:13;117.25;;;47.42;;
34317;SDS011;20582;52.196;20.952;2024-03-06T00:36:42;123.93;;;49.85;;
34317;SDS011;20582;52.196;20.952;2024-03-06T00:39:08;135.43;;;51.25;;
34317;SDS011;20582;52.196;20.952;2024-03-06T00:41:35;113.07;;;47.20;;
34317;SDS011;20582;52.196;20.952;2024-03-06T00:44:01;117.10;;;50.10;;
34317;SDS011;20582;52.196;20.952;2024-03-06T00:46:27;108.05;;;48.50;;
34317;SDS011;20582;52.196;20.952;2024-03-06T00:48:53;114.82;;;49.90;;
34317;SDS011;20582;52.196;20.952;2024-03-06T00:51:19;110.47;;;48.75;;
34317;SDS011;20582;52.196;20.952;2024-03-06T00:53:45;105.75;;;46.22;;
34317;SDS011;20582;52.196;20.952;2024-03-06T00:56:11;110.43;;;49.50;;
34317;SDS011;20582;52.196;20.952;2024-03-06T00:58:37;113.65;;;48.28;;
34317;SDS011;20582;52.196;20.952;2024-03-06T01:01:03;117.40;;;50.15;;
34317;SDS011;20582;52.196;20.952;2024-03-06T01:03:29;109.45;;;47.03;;
34317;SDS011;20582;52.196;20.952;2024-03-06T01:05:55;109.80;;;52.20;;
34317;SDS011;20582;52.196;20.952;2024-03-06T01:08:21;110.93;;;49.83;;
34317;SDS011;20582;52.196;20.952;2024-03-06T01:10:49;106.00;;;51.78;;
34317;SDS011;20582;52.196;20.952;2024-03-06T01:13:15;97.75;;;48.85;;
34317;SDS011;20582;52.196;20.952;2024-03-06T01:15:41;101.50;;;51.10;;
34317;SDS011;20582;52.196;20.952;2024-03-06T01:18:07;97.55;;;48.38;;
34317;SDS011;20582;52.196;20.952;2024-03-06T01:20:34;95.65;;;47.30;;
34317;SDS011;20582;52.196;20.952;2024-03-06T01:23:01;94.22;;;47.75;;
34317;SDS011;20582;52.196;20.952;2024-03-06T01:25:27;93.28;;;46.90;;
34317;SDS011;20582;52.196;20.952;2024-03-06T01:27:53;92.95;;;47.33;;
34317;SDS011;20582;52.196;20.952;2024-03-06T01:30:19;92.03;;;47.38;;
34317;SDS011;20582;52.196;20.952;2024-03-06T01:32:45;82.05;;;45.38;;
34317;SDS011;20582;52.196;20.952;2024-03-06T01:35:11;80.72;;;44.08;;
34317;SDS011;20582;52.196;20.952;2024-03-06T01:37:37;84.20;;;43.25;;
34317;SDS011;20582;52.196;20.952;2024-03-06T01:40:03;79.68;;;40.40;;
34317;SDS011;20582;52.196;20.952;2024-03-06T01:42:29;78.55;;;42.35;;
34317;SDS011;20582;52.196;20.952;2024-03-06T01:44:55;73.97;;;41.85;;
34317;SDS011;20582;52.196;20.952;2024-03-06T01:47:21;72.30;;;41.08;;
34317;SDS011;20582;52.196;20.952;2024-03-06T01:49:47;79.18;;;42.33;;
34317;SDS011;20582;52.196;20.952;2024-03-06T01:52:14;71.38;;;38.78;;
34317;SDS011;20582;52.196;20.952;2024-03-06T01:54:40;72.25;;;40.58;;
34317;SDS011;20582;52.196;20.952;2024-03-06T01:57:07;67.95;;;38.78;;
34317;SDS011;20582;52.196;20.952;2024-03-06T01:59:34;73.30;;;41.60;;
34317;SDS011;20582;52.196;20.952;2024-03-06T02:02:00;69.63;;;38.22;;
34317;SDS011;20582;52.196;20.952;2024-03-06T02:04:26;68.03;;;37.08;;
34317;SDS011;20582;52.196;20.952;2024-03-06T02:06:53;73.43;;;40.10;;
34317;SDS011;20582;52.196;20.952;2024-03-06T02:09:19;63.38;;;35.25;;
34317;SDS011;20582;52.196;20.952;2024-03-06T02:11:45;66.18;;;34.97;;
34317;SDS011;20582;52.196;20.952;2024-03-06T02:14:11;63.15;;;35.70;;
34317;SDS011;20582;52.196;20.952;2024-03-06T02:16:38;65.95;;;35.78;;
34317;SDS011;20582;52.196;20.952;2024-03-06T02:19:04;59.30;;;32.90;;
34317;SDS011;20582;52.196;20.952;2024-03-06T02:21:30;60.90;;;34.42;;
34317;SDS011;20582;52.196;20.952;2024-03-06T02:23:56;56.65;;;31.98;;
34317;SDS011;20582;52.196;20.952;2024-03-06T02:26:23;60.50;;;33.58;;
34317;SDS011;20582;52.196;20.952;2024-03-06T02:28:49;57.60;;;34.67;;
34317;SDS011;20582;52.196;20.952;2024-03-06T02:31:16;58.85;;;33.20;;
34317;SDS011;20582;52.196;20.952;2024-03-06T02:33:42;58.83;;;32.65;;
34317;SDS011;20582;52.196;20.952;2024-03-06T02:36:09;58.97;;;32.45;;
34317;SDS011;20582;52.196;20.952;2024-03-06T02:38:35;54.60;;;30.70;;
34317;SDS011;20582;52.196;20.952;2024-03-06T02:41:01;54.08;;;30.75;;
34317;SDS011;20582;52.196;20.952;2024-03-06T02:43:28;51.72;;;31.83;;
34317;SDS011;20582;52.196;20.952;2024-03-06T02:45:54;53.50;;;29.95;;
34317;SDS011;20582;52.196;20.952;2024-03-06T02:48:20;56.30;;;31.60;;
34317;SDS011;20582;52.196;20.952;2024-03-06T02:50:46;52.75;;;30.73;;
34317;SDS011;20582;52.196;20.952;2024-03-06T02:53:12;54.90;;;30.58;;
34317;SDS011;20582;52.196;20.952;2024-03-06T02:55:38;49.70;;;29.55;;
34317;SDS011;20582;52.196;20.952;2024-03-06T02:58:04;51.35;;;30.52;;
34317;SDS011;20582;52.196;20.952;2024-03-06T03:00:30;51.72;;;29.88;;
34317;SDS011;20582;52.196;20.952;2024-03-06T03:02:57;52.42;;;28.88;;
34317;SDS011;20582;52.196;20.952;2024-03-06T03:05:23;48.88;;;28.48;;
34317;SDS011;20582;52.196;20.952;2024-03-06T03:07:49;50.92;;;28.95;;
34317;SDS011;20582;52.196;20.952;2024-03-06T03:10:15;49.10;;;28.65;;
34317;SDS011;20582;52.196;20.952;2024-03-06T03:12:41;46.22;;;27.58;;
34317;SDS011;20582;52.196;20.952;2024-03-06T03:15:08;50.30;;;28.92;;
34317;SDS011;20582;52.196;20.952;2024-03-06T03:17:34;47.78;;;27.83;;
34317;SDS011;20582;52.196;20.952;2024-03-06T03:20:00;47.00;;;25.95;;
34317;SDS011;20582;52.196;20.952;2024-03-06T03:22:35;43.42;;;25.65;;
34317;SDS011;20582;52.196;20.952;2024-03-06T03:25:01;47.58;;;28.20;;
34317;SDS011;20582;52.196;20.952;2024-03-06T03:27:27;45.78;;;27.73;;
34317;SDS011;20582;52.196;20.952;2024-03-06T03:29:53;49.03;;;28.27;;
34317;SDS011;20582;52.196;20.952;2024-03-06T03:32:18;53.10;;;28.35;;
34317;SDS011;20582;52.196;20.952;2024-03-06T03:34:44;49.35;;;27.83;;
34317;SDS011;20582;52.196;20.952;2024-03-06T03:37:12;49.33;;;27.67;;
34317;SDS011;20582;52.196;20.952;2024-03-06T03:39:38;50.22;;;27.92;;
34317;SDS011;20582;52.196;20.952;2024-03-06T03:42:04;50.92;;;27.88;;
34317;SDS011;20582;52.196;20.952;2024-03-06T03:44:31;47.03;;;28.08;;
34317;SDS011;20582;52.196;20.952;2024-03-06T03:46:57;50.33;;;28.27;;
34317;SDS011;20582;52.196;20.952;2024-03-06T03:49:23;45.28;;;24.25;;
34317;SDS011;20582;52.196;20.952;2024-03-06T03:51:49;45.63;;;27.52;;
34317;SDS011;20582;52.196;20.952;2024-03-06T03:54:15;48.28;;;27.25;;
34317;SDS011;20582;52.196;20.952;2024-03-06T03:56:41;50.80;;;28.27;;
34317;SDS011;20582;52.196;20.952;2024-03-06T03:59:07;50.90;;;28.80;;
34317;SDS011;20582;52.196;20.952;2024-03-06T04:01:33;49.13;;;26.80;;
34317;SDS011;20582;52.196;20.952;2024-03-06T04:03:59;49.30;;;28.20;;
34317;SDS011;20582;52.196;20.952;2024-03-06T04:06:25;48.92;;;25.65;;
34317;SDS011;20582;52.196;20.952;2024-03-06T04:08:51;49.38;;;26.00;;
34317;SDS011;20582;52.196;20.952;2024-03-06T04:11:17;48.85;;;27.58;;
34317;SDS011;20582;52.196;20.952;2024-03-06T04:13:43;48.45;;;26.75;;
34317;SDS011;20582;52.196;20.952;2024-03-06T04:16:09;46.60;;;26.13;;
34317;SDS011;20582;52.196;20.952;2024-03-06T04:18:35;44.97;;;25.60;;
34317;SDS011;20582;52.196;20.952;2024-03-06T04:21:04;44.38;;;24.95;;
34317;SDS011;20582;52.196;20.952;2024-03-06T04:23:31;45.30;;;25.00;;
34317;SDS011;20582;52.196;20.952;2024-03-06T04:25:57;42.40;;;24.52;;
34317;SDS011;20582;52.196;20.952;2024-03-06T04:28:23;43.17;;;25.08;;
34317;SDS011;20582;52.196;20.952;2024-03-06T04:30:49;43.17;;;24.38;;
34317;SDS011;20582;52.196;20.952;2024-03-06T04:33:15;40.67;;;23.15;;
34317;SDS011;20582;52.196;20.952;2024-03-06T04:35:41;43.55;;;25.55;;
34317;SDS011;20582;52.196;20.952;2024-03-06T04:38:07;42.95;;;24.83;;
34317;SDS011;20582;52.196;20.952;2024-03-06T04:40:33;43.40;;;24.48;;
34317;SDS011;20582;52.196;20.952;2024-03-06T04:43:02;45.35;;;25.58;;
34317;SDS011;20582;52.196;20.952;2024-03-06T04:45:28;44.92;;;24.60;;
34317;SDS011;20582;52.196;20.952;2024-03-06T04:47:54;43.80;;;23.88;;
34317;SDS011;20582;52.196;20.952;2024-03-06T04:50:20;43.72;;;25.33;;
34317;SDS011;20582;52.196;20.952;2024-03-06T04:52:46;39.78;;;22.65;;
34317;SDS011;20582;52.196;20.952;2024-03-06T04:55:12;42.78;;;23.92;;
34317;SDS011;20582;52.196;20.952;2024-03-06T04:57:42;42.35;;;25.20;;
34317;SDS011;20582;52.196;20.952;2024-03-06T05:00:08;43.90;;;25.17;;
34317;SDS011;20582;52.196;20.952;2024-03-06T05:02:35;41.35;;;23.15;;
34317;SDS011;20582;52.196;20.952;2024-03-06T05:05:02;40.83;;;23.85;;
34317;SDS011;20582;52.196;20.952;2024-03-06T05:07:28;39.30;;;23.23;;
34317;SDS011;20582;52.196;20.952;2024-03-06T05:09:54;41.05;;;24.05;;
34317;SDS011;20582;52.196;20.952;2024-03-06T05:12:21;44.25;;;23.42;;
34317;SDS011;20582;52.196;20.952;2024-03-06T05:14:47;43.22;;;23.83;;
34317;SDS011;20582;52.196;20.952;2024-03-06T05:17:13;46.55;;;23.45;;
34317;SDS011;20582;52.196;20.952;2024-03-06T05:19:39;38.92;;;22.00;;
34317;SDS011;20582;52.196;20.952;2024-03-06T05:22:05;42.17;;;25.02;;
34317;SDS011;20582;52.196;20.952;2024-03-06T05:24:30;43.13;;;25.17;;
34317;SDS011;20582;52.196;20.952;2024-03-06T05:26:56;41.70;;;22.40;;
34317;SDS011;20582;52.196;20.952;2024-03-06T05:29:22;43.30;;;26.02;;
34317;SDS011;20582;52.196;20.952;2024-03-06T05:31:48;46.55;;;25.15;;
34317;SDS011;20582;52.196;20.952;2024-03-06T05:34:14;45.28;;;24.00;;
34317;SDS011;20582;52.196;20.952;2024-03-06T05:36:40;43.88;;;25.05;;
34317;SDS011;20582;52.196;20.952;2024-03-06T05:39:06;44.90;;;24.48;;
34317;SDS011;20582;52.196;20.952;2024-03-06T05:41:37;49.90;;;24.73;;
34317;SDS011;20582;52.196;20.952;2024-03-06T05:44:03;45.83;;;24.75;;
34317;SDS011;20582;52.196;20.952;2024-03-06T05:46:29;44.40;;;25.02;;
34317;SDS011;20582;52.196;20.952;2024-03-06T05:48:55;45.70;;;25.55;;
34317;SDS011;20582;52.196;20.952;2024-03-06T05:51:21;49.95;;;24.27;;
34317;SDS011;20582;52.196;20.952;2024-03-06T05:53:47;41.97;;;23.58;;
34317;SDS011;20582;52.196;20.952;2024-03-06T05:56:13;42.63;;;22.73;;
34317;SDS011;20582;52.196;20.952;2024-03-06T05:58:39;43.90;;;24.40;;
34317;SDS011;20582;52.196;20.952;2024-03-06T06:01:05;42.53;;;23.30;;
34317;SDS011;20582;52.196;20.952;2024-03-06T06:03:31;38.92;;;22.55;;
34317;SDS011;20582;52.196;20.952;2024-03-06T06:05:57;40.17;;;22.05;;
34317;SDS011;20582;52.196;20.952;2024-03-06T06:08:24;38.30;;;21.05;;
34317;SDS011;20582;52.196;20.952;2024-03-06T06:10:50;36.53;;;21.15;;
34317;SDS011;20582;52.196;20.952;2024-03-06T06:13:19;42.58;;;21.85;;
34317;SDS011;20582;52.196;20.952;2024-03-06T06:15:46;39.58;;;22.58;;
34317;SDS011;20582;52.196;20.952;2024-03-06T06:18:12;39.05;;;21.08;;
34317;SDS011;20582;52.196;20.952;2024-03-06T06:20:38;39.53;;;22.35;;
34317;SDS011;20582;52.196;20.952;2024-03-06T06:23:04;37.45;;;20.67;;
34317;SDS011;20582;52.196;20.952;2024-03-06T06:25:30;37.45;;;21.17;;
34317;SDS011;20582;52.196;20.952;2024-03-06T06:27:56;36.42;;;21.10;;
34317;SDS011;20582;52.196;20.952;2024-03-06T06:30:22;32.83;;;20.52;;
34317;SDS011;20582;52.196;20.952;2024-03-06T06:32:48;40.97;;;21.45;;
34317;SDS011;20582;52.196;20.952;2024-03-06T06:35:14;43.20;;;22.88;;
34317;SDS011;20582;52.196;20.952;2024-03-06T06:37:40;37.90;;;21.17;;
34317;SDS011;20582;52.196;20.952;2024-03-06T06:40:07;40.00;;;21.15;;
34317;SDS011;20582;52.196;20.952;2024-03-06T06:42:36;36.15;;;21.02;;
34317;SDS011;20582;52.196;20.952;2024-03-06T06:45:03;38.72;;;21.88;;
34317;SDS011;20582;52.196;20.952;2024-03-06T06:47:31;35.63;;;20.38;;
34317;SDS011;20582;52.196;20.952;2024-03-06T06:49:57;36.38;;;20.67;;
34317;SDS011;20582;52.196;20.952;2024-03-06T06:52:23;35.35;;;19.13;;
34317;SDS011;20582;52.196;20.952;2024-03-06T06:54:52;34.08;;;19.67;;
34317;SDS011;20582;52.196;20.952;2024-03-06T06:57:18;38.90;;;19.35;;
34317;SDS011;20582;52.196;20.952;2024-03-06T06:59:45;34.03;;;19.50;;
34317;SDS011;20582;52.196;20.952;2024-03-06T07:02:11;37.42;;;20.02;;
34317;SDS011;20582;52.196;20.952;2024-03-06T07:04:37;34.97;;;18.23;;
34317;SDS011;20582;52.196;20.952;2024-03-06T07:07:03;34.92;;;18.88;;
34317;SDS011;20582;52.196;20.952;2024-03-06T07:09:29;37.08;;;18.98;;
34317;SDS011;20582;52.196;20.952;2024-03-06T07:11:55;37.13;;;19.88;;
34317;SDS011;20582;52.196;20.952;2024-03-06T07:14:21;33.10;;;17.73;;
34317;SDS011;20582;52.196;20.952;2024-03-06T07:16:47;34.67;;;18.27;;
34317;SDS011;20582;52.196;20.952;2024-03-06T07:19:13;32.22;;;18.20;;
34317;SDS011;20582;52.196;20.952;2024-03-06T07:21:39;33.15;;;17.60;;
34317;SDS011;20582;52.196;20.952;2024-03-06T07:24:05;30.33;;;16.75;;
34317;SDS011;20582;52.196;20.952;2024-03-06T07:26:34;28.33;;;17.30;;
34317;SDS011;20582;52.196;20.952;2024-03-06T07:29:00;26.80;;;15.50;;
34317;SDS011;20582;52.196;20.952;2024-03-06T07:31:27;32.33;;;18.05;;
34317;SDS011;20582;52.196;20.952;2024-03-06T07:33:53;32.28;;;18.17;;
34317;SDS011;20582;52.196;20.952;2024-03-06T07:36:20;32.45;;;17.92;;
34317;SDS011;20582;52.196;20.952;2024-03-06T07:38:47;28.95;;;17.98;;
34317;SDS011;20582;52.196;20.952;2024-03-06T07:41:13;34.13;;;17.15;;
34317;SDS011;20582;52.196;20.952;2024-03-06T07:43:39;35.72;;;17.45;;
34317;SDS011;20582;52.196;20.952;2024-03-06T07:46:05;30.42;;;17.27;;
34317;SDS011;20582;52.196;20.952;2024-03-06T07:48:38;31.58;;;16.88;;
34317;SDS011;20582;52.196;20.952;2024-03-06T07:51:09;31.35;;;17.67;;
34317;SDS011;20582;52.196;20.952;2024-03-06T07:53:34;39.60;;;18.27;;
34317;SDS011;20582;52.196;20.952;2024-03-06T07:56:01;36.15;;;17.40;;
34317;SDS011;20582;52.196;20.952;2024-03-06T07:58:28;28.00;;;14.88;;
34317;SDS011;20582;52.196;20.952;2024-03-06T08:00:54;32.38;;;17.23;;
34317;SDS011;20582;52.196;20.952;2024-03-06T08:03:21;30.58;;;16.73;;
34317;SDS011;20582;52.196;20.952;2024-03-06T08:05:49;30.77;;;16.90;;
34317;SDS011;20582;52.196;20.952;2024-03-06T08:08:15;33.50;;;16.63;;
34317;SDS011;20582;52.196;20.952;2024-03-06T08:10:41;28.95;;;16.00;;
34317;SDS011;20582;52.196;20.952;2024-03-06T08:13:07;33.97;;;17.50;;
34317;SDS011;20582;52.196;20.952;2024-03-06T08:15:34;28.23;;;16.52;;
34317;SDS011;20582;52.196;20.952;2024-03-06T08:18:00;38.17;;;16.85;;
34317;SDS011;20582;52.196;20.952;2024-03-06T08:20:26;27.20;;;16.30;;
34317;SDS011;20582;52.196;20.952;2024-03-06T08:22:52;29.75;;;16.65;;
34317;SDS011;20582;52.196;20.952;2024-03-06T08:25:18;33.90;;;16.67;;
34317;SDS011;20582;52.196;20.952;2024-03-06T08:27:44;36.97;;;16.10;;
34317;SDS011;20582;52.196;20.952;2024-03-06T08:30:10;29.58;;;16.23;;
34317;SDS011;20582;52.196;20.952;2024-03-06T08:32:36;30.20;;;16.38;;
34317;SDS011;20582;52.196;20.952;2024-03-06T08:35:09;28.20;;;16.15;;
34317;SDS011;20582;52.196;20.952;2024-03-06T08:37:36;30.25;;;16.45;;
34317;SDS011;20582;52.196;20.952;2024-03-06T08:40:03;31.75;;;17.17;;
34317;SDS011;20582;52.196;20.952;2024-03-06T08:42:29;28.60;;;16.55;;
34317;SDS011;20582;52.196;20.952;2024-03-06T08:44:55;31.05;;;16.35;;
34317;SDS011;20582;52.196;20.952;2024-03-06T08:47:22;33.60;;;17.02;;
34317;SDS011;20582;52.196;20.952;2024-03-06T08:49:48;33.13;;;17.08;;
34317;SDS011;20582;52.196;20.952;2024-03-06T08:52:14;32.45;;;16.92;;
34317;SDS011;20582;52.196;20.952;2024-03-06T08:54:40;37.85;;;17.08;;
34317;SDS011;20582;52.196;20.952;2024-03-06T08:57:07;32.70;;;16.63;;
34317;SDS011;20582;52.196;20.952;2024-03-06T08:59:33;33.72;;;17.23;;
34317;SDS011;20582;52.196;20.952;2024-03-06T09:02:10;30.30;;;16.45;;
34317;SDS011;20582;52.196;20.952;2024-03-06T09:04:37;30.67;;;16.55;;
34317;SDS011;20582;52.196;20.952;2024-03-06T09:07:03;32.00;;;17.77;;
34317;SDS011;20582;52.196;20.952;2024-03-06T09:09:29;33.10;;;18.33;;
34317;SDS011;20582;52.196;20.952;2024-03-06T09:11:55;29.15;;;15.80;;
34317;SDS011;20582;52.196;20.952;2024-03-06T09:14:21;33.22;;;16.85;;
34317;SDS011;20582;52.196;20.952;2024-03-06T09:16:48;30.08;;;15.77;;
34317;SDS011;20582;52.196;20.952;2024-03-06T09:19:14;35.47;;;16.70;;
34317;SDS011;20582;52.196;20.952;2024-03-06T09:21:40;32.50;;;17.73;;
34317;SDS011;20582;52.196;20.952;2024-03-06T09:24:06;36.22;;;18.05;;
34317;SDS011;20582;52.196;20.952;2024-03-06T09:26:32;34.15;;;16.67;;
34317;SDS011;20582;52.196;20.952;2024-03-06T09:28:58;34.15;;;18.15;;
34317;SDS011;20582;52.196;20.952;2024-03-06T09:31:24;31.60;;;17.23;;
34317;SDS011;20582;52.196;20.952;2024-03-06T09:33:50;29.90;;;15.05;;
34317;SDS011;20582;52.196;20.952;2024-03-06T09:36:16;37.22;;;17.65;;
34317;SDS011;20582;52.196;20.952;2024-03-06T09:38:42;32.70;;;17.42;;
34317;SDS011;20582;52.196;20.952;2024-03-06T09:41:08;34.53;;;16.23;;
34317;SDS011;20582;52.196;20.952;2024-03-06T09:43:34;34.30;;;17.23;;
34317;SDS011;20582;52.196;20.952;2024-03-06T09:46:00;29.48;;;14.95;;
34317;SDS011;20582;52.196;20.952;2024-03-06T09:48:27;28.67;;;15.48;;
34317;SDS011;20582;52.196;20.952;2024-03-06T09:50:54;29.85;;;14.52;;
34317;SDS011;20582;52.196;20.952;2024-03-06T09:53:23;29.90;;;14.77;;
34317;SDS011;20582;52.196;20.952;2024-03-06T09:55:50;31.13;;;16.60;;
34317;SDS011;20582;52.196;20.952;2024-03-06T09:58:16;36.00;;;15.45;;
34317;SDS011;20582;52.196;20.952;2024-03-06T10:00:42;27.17;;;14.73;;
34317;SDS011;20582;52.196;20.952;2024-03-06T10:03:09;34.90;;;15.65;;
34317;SDS011;20582;52.196;20.952;2024-03-06T10:05:36;29.55;;;14.00;;
34317;SDS011;20582;52.196;20.952;2024-03-06T10:08:03;30.08;;;15.43;;
34317;SDS011;20582;52.196;20.952;2024-03-06T10:10:29;26.48;;;15.07;;
34317;SDS011;20582;52.196;20.952;2024-03-06T10:12:55;26.38;;;14.55;;
34317;SDS011;20582;52.196;20.952;2024-03-06T10:15:27;30.53;;;15.03;;
34317;SDS011;20582;52.196;20.952;2024-03-06T10:20:39;29.27;;;15.55;;
34317;SDS011;20582;52.196;20.952;2024-03-06T10:23:05;29.83;;;14.40;;
34317;SDS011;20582;52.196;20.952;2024-03-06T10:25:32;29.20;;;15.10;;
34317;SDS011;20582;52.196;20.952;2024-03-06T10:30:31;34.13;;;15.55;;
34317;SDS011;20582;52.196;20.952;2024-03-06T10:32:58;41.30;;;17.65;;
34317;SDS011;20582;52.196;20.952;2024-03-06T10:35:24;40.53;;;17.63;;
34317;SDS011;20582;52.196;20.952;2024-03-06T10:37:51;31.10;;;15.38;;
34317;SDS011;20582;52.196;20.952;2024-03-06T10:40:18;33.78;;;16.08;;
34317;SDS011;20582;52.196;20.952;2024-03-06T10:42:45;33.10;;;15.07;;
34317;SDS011;20582;52.196;20.952;2024-03-06T10:45:12;32.95;;;16.52;;
34317;SDS011;20582;52.196;20.952;2024-03-06T10:47:40;33.45;;;16.40;;
34317;SDS011;20582;52.196;20.952;2024-03-06T10:50:06;34.05;;;16.33;;
34317;SDS011;20582;52.196;20.952;2024-03-06T10:52:35;33.22;;;15.82;;
34317;SDS011;20582;52.196;20.952;2024-03-06T10:55:02;31.58;;;14.60;;
34317;SDS011;20582;52.196;20.952;2024-03-06T10:57:29;30.60;;;15.80;;
34317;SDS011;20582;52.196;20.952;2024-03-06T10:59:56;31.67;;;13.77;;
34317;SDS011;20582;52.196;20.952;2024-03-06T11:02:24;30.13;;;14.75;;
34317;SDS011;20582;52.196;20.952;2024-03-06T11:04:50;29.38;;;13.98;;
34317;SDS011;20582;52.196;20.952;2024-03-06T11:07:17;29.75;;;13.75;;
34317;SDS011;20582;52.196;20.952;2024-03-06T11:09:43;32.08;;;14.38;;
34317;SDS011;20582;52.196;20.952;2024-03-06T11:12:09;26.63;;;14.18;;
34317;SDS011;20582;52.196;20.952;2024-03-06T11:14:38;32.47;;;13.38;;
34317;SDS011;20582;52.196;20.952;2024-03-06T11:17:05;26.65;;;12.75;;
34317;SDS011;20582;52.196;20.952;2024-03-06T11:22:18;25.10;;;13.18;;
34317;SDS011;20582;52.196;20.952;2024-03-06T11:25:04;24.65;;;13.77;;
34317;SDS011;20582;52.196;20.952;2024-03-06T11:27:31;29.10;;;13.98;;
34317;SDS011;20582;52.196;20.952;2024-03-06T11:30:04;30.23;;;13.95;;
34317;SDS011;20582;52.196;20.952;2024-03-06T11:32:35;26.20;;;12.80;;
34317;SDS011;20582;52.196;20.952;2024-03-06T11:35:01;23.17;;;13.52;;
34317;SDS011;20582;52.196;20.952;2024-03-06T11:37:33;22.85;;;11.27;;
34317;SDS011;20582;52.196;20.952;2024-03-06T11:40:01;21.55;;;11.05;;
34317;SDS011;20582;52.196;20.952;2024-03-06T11:42:33;23.48;;;12.27;;
34317;SDS011;20582;52.196;20.952;2024-03-06T11:45:17;24.55;;;11.68;;
34317;SDS011;20582;52.196;20.952;2024-03-06T11:48:02;23.73;;;11.40;;
34317;SDS011;20582;52.196;20.952;2024-03-06T11:50:28;24.63;;;11.18;;
34317;SDS011;20582;52.196;20.952;2024-03-06T11:52:58;20.50;;;10.65;;
34317;SDS011;20582;52.196;20.952;2024-03-06T11:55:24;19.95;;;9.68;;
34317;SDS011;20582;52.196;20.952;2024-03-06T11:57:53;25.02;;;10.65;;
34317;SDS011;20582;52.196;20.952;2024-03-06T12:00:22;22.55;;;10.85;;
34317;SDS011;20582;52.196;20.952;2024-03-06T12:02:48;20.02;;;10.10;;
34317;SDS011;20582;52.196;20.952;2024-03-06T12:05:16;23.38;;;10.20;;
34317;SDS011;20582;52.196;20.952;2024-03-06T12:07:49;22.70;;;10.93;;
34317;SDS011;20582;52.196;20.952;2024-03-06T12:10:18;21.90;;;9.25;;
34317;SDS011;20582;52.196;20.952;2024-03-06T12:12:44;15.65;;;8.55;;
34317;SDS011;20582;52.196;20.952;2024-03-06T12:15:10;22.17;;;11.13;;
34317;SDS011;20582;52.196;20.952;2024-03-06T12:17:46;20.70;;;10.55;;
34317;SDS011;20582;52.196;20.952;2024-03-06T12:20:14;18.67;;;9.45;;
34317;SDS011;20582;52.196;20.952;2024-03-06T12:22:48;17.05;;;9.25;;
34317;SDS011;20582;52.196;20.952;2024-03-06T12:25:21;22.10;;;9.23;;
34317;SDS011;20582;52.196;20.952;2024-03-06T12:27:47;21.15;;;9.90;;
34317;SDS011;20582;52.196;20.952;2024-03-06T12:30:17;18.23;;;9.00;;
34317;SDS011;20582;52.196;20.952;2024-03-06T12:32:43;19.52;;;8.93;;
34317;SDS011;20582;52.196;20.952;2024-03-06T12:35:09;17.60;;;8.65;;
34317;SDS011;20582;52.196;20.952;2024-03-06T12:37:35;14.20;;;7.95;;
34317;SDS011;20582;52.196;20.952;2024-03-06T12:40:02;19.60;;;8.20;;
34317;SDS011;20582;52.196;20.952;2024-03-06T12:42:37;16.23;;;7.88;;
34317;SDS011;20582;52.196;20.952;2024-03-06T12:45:03;12.73;;;6.28;;
34317;SDS011;20582;52.196;20.952;2024-03-06T12:47:29;16.98;;;6.60;;
34317;SDS011;20582;52.196;20.952;2024-03-06T12:49:55;15.07;;;6.78;;
34317;SDS011;20582;52.196;20.952;2024-03-06T12:52:21;13.18;;;6.70;;
34317;SDS011;20582;52.196;20.952;2024-03-06T12:54:47;14.00;;;6.30;;
34317;SDS011;20582;52.196;20.952;2024-03-06T12:57:14;12.60;;;6.28;;
34317;SDS011;20582;52.196;20.952;2024-03-06T12:59:40;13.25;;;6.38;;
34317;SDS011;20582;52.196;20.952;2024-03-06T13:02:06;13.27;;;6.60;;
34317;SDS011;20582;52.196;20.952;2024-03-06T13:04:32;14.13;;;6.43;;
34317;SDS011;20582;52.196;20.952;2024-03-06T13:06:58;13.70;;;7.00;;
34317;SDS011;20582;52.196;20.952;2024-03-06T13:09:24;16.98;;;7.32;;
34317;SDS011;20582;52.196;20.952;2024-03-06T13:11:50;13.02;;;6.55;;
34317;SDS011;20582;52.196;20.952;2024-03-06T13:14:16;15.85;;;6.82;;
34317;SDS011;20582;52.196;20.952;2024-03-06T13:16:42;13.55;;;6.93;;
34317;SDS011;20582;52.196;20.952;2024-03-06T13:19:08;14.45;;;7.40;;
34317;SDS011;20582;52.196;20.952;2024-03-06T13:21:36;15.95;;;6.75;;
34317;SDS011;20582;52.196;20.952;2024-03-06T13:24:02;19.23;;;7.30;;
34317;SDS011;20582;52.196;20.952;2024-03-06T13:26:28;13.73;;;7.13;;
34317;SDS011;20582;52.196;20.952;2024-03-06T13:28:54;13.13;;;6.82;;
34317;SDS011;20582;52.196;20.952;2024-03-06T13:31:20;16.63;;;7.18;;
34317;SDS011;20582;52.196;20.952;2024-03-06T13:33:46;29.13;;;10.02;;
34317;SDS011;20582;52.196;20.952;2024-03-06T13:36:14;39.90;;;11.07;;
34317;SDS011;20582;52.196;20.952;2024-03-06T13:38:40;26.02;;;8.88;;
34317;SDS011;20582;52.196;20.952;2024-03-06T13:41:06;36.35;;;9.48;;
34317;SDS011;20582;52.196;20.952;2024-03-06T13:43:32;37.60;;;12.10;;
34317;SDS011;20582;52.196;20.952;2024-03-06T13:45:58;33.97;;;8.80;;
34317;SDS011;20582;52.196;20.952;2024-03-06T13:48:24;33.58;;;9.90;;
34317;SDS011;20582;52.196;20.952;2024-03-06T13:50:50;16.17;;;7.85;;
34317;SDS011;20582;52.196;20.952;2024-03-06T13:53:16;27.98;;;8.93;;
34317;SDS011;20582;52.196;20.952;2024-03-06T13:55:42;19.42;;;7.55;;
34317;SDS011;20582;52.196;20.952;2024-03-06T13:58:08;31.55;;;7.95;;
34317;SDS011;20582;52.196;20.952;2024-03-06T14:00:34;25.38;;;9.25;;
34317;SDS011;20582;52.196;20.952;2024-03-06T14:03:00;32.80;;;8.90;;
34317;SDS011;20582;52.196;20.952;2024-03-06T14:05:26;18.33;;;7.72;;
34317;SDS011;20582;52.196;20.952;2024-03-06T14:07:53;27.23;;;10.75;;
34317;SDS011;20582;52.196;20.952;2024-03-06T14:10:20;39.13;;;9.90;;
34317;SDS011;20582;52.196;20.952;2024-03-06T14:12:47;14.90;;;7.07;;
34317;SDS011;20582;52.196;20.952;2024-03-06T14:15:17;15.18;;;7.47;;